METAR Data
IDs: Format: Raw Decoded Include TAF

Data at: 1300 UTC 24 Jan 2021

METAR for:KPHL (Philadelphia Intl, PA, US)
Text:KPHL 241254Z 31008KT 10SM FEW045 FEW250 M04/M14 A3029 RMK AO2 SLP258 T10441144
Temperature: -4.4°C ( 24°F)
Dewpoint:-14.4°C ( 6°F) [RH = 46%]
Pressure (altimeter):30.29 inches Hg (1025.8 mb) [Sea level pressure: 1025.8 mb]
Winds:from the NW (310 degrees) at 9 MPH (8 knots; 4.1 m/s)
Visibility:10 or more sm (16+ km)
Ceiling:at least 12,000 feet AGL
Clouds: few clouds at 4500 feet AGL, few clouds at 25000 feet AGL